Last 48 Hours

Stanford Met Tower

Hourly Data | America/Los_Angeles
as of 5/10/26 8:33 AM PDT
Date & Time Temp (°F) RH (%) Dew Pt (°F) Wind Dir (°) Wind Spd (mph) Wind Gust (mph) Solar Rad (W/m2) Pressure (mb) NowCast AQI Value (AQI) NowCast AQI Status Latest Rain (In) Daily Rain (In) Daily Min Temp (°F) Daily Max Temp (°F)
5/10/26 - 0800 50.6 95 50.3 SW | 222 1.6 4.7 193 1,018.5 8 Good 0.00 0.00 47.4 54.3
5/10/26 - 0700 47.8 96 47.7 SSW | 213 2.5 4.0 18 1,018.4 9 Good 0.00 0.00 47.4 52.8
5/10/26 - 0600 49.4 94 48.8 SW | 222 1.9 3.4 0 1,018.0 10 Good 0.00 0.00 48.5 52.8
5/10/26 - 0500 50.8 92 49.6 WSW | 241 2.2 4.4 0 1,017.9 10 Good 0.00 0.00 49.6 52.8
5/10/26 - 0400 52.0 92 50.7 WNW | 298 2.4 5.0 0 1,017.9 9 Good 0.00 0.00 49.6 52.8
5/10/26 - 0300 50.5 94 49.9 W | 273 2.2 3.9 0 1,018.0 10 Good 0.00 0.00 49.6 51.9
5/10/26 - 0200 50.5 93 49.5 SW | 225 2.4 4.2 0 1,017.9 12 Good 0.00 0.00 50.2 51.3
5/10/26 - 0100 52.2 90 50.4 SSW | 198 4.5 7.2 0 1,017.9 15 Good 0.00 0.00 48.2 74.4
5/10/26 - 0000 53.6 89 51.4 SSW | 194 4.2 6.9 0 1,017.7 15 Good 0.00 0.00 48.2 74.4
5/9/26 - 2300 54.4 87 51.6 S | 169 3.0 5.3 0 1,017.6 16 Good 0.00 0.00 48.2 74.4
5/9/26 - 2200 57.2 80 52.2 SSE | 165 3.0 5.7 0 1,017.5 17 Good 0.00 0.00 48.2 74.4
5/9/26 - 2100 60.8 69 51.4 ESE | 102 2.8 7.1 1 1,016.8 20 Good 0.00 0.00 48.2 74.4
5/9/26 - 2000 64.6 60 51.2 NNE | 23 2.9 6.5 72 1,016.2 18 Good 0.00 0.00 48.2 74.4
5/9/26 - 1900 68.0 55 52.4 N | 7 5.0 9.2 254 1,015.6 19 Good 0.00 0.00 48.2 74.4
5/9/26 - 1800 69.2 54 53.0 N | 5 5.7 11.2 456 1,015.2 22 Good 0.00 0.00 48.2 74.4
5/9/26 - 1700 69.3 54 53.1 N | 0 7.8 13.7 645 1,015.1 25 Good 0.00 0.00 48.2 74.4
5/9/26 - 1600 71.9 52 54.0 N | 7 6.7 12.2 792 1,014.6 29 Good 0.00 0.00 48.2 74.4
5/9/26 - 1500 71.9 53 54.6 NNE | 16 7.4 13.3 897 1,014.7 36 Good 0.00 0.00 48.2 74.4
5/9/26 - 1400 71.7 57 56.7 NE | 48 5.0 10.4 943 1,015.1 39 Good 0.00 0.00 48.2 74.4
5/9/26 - 1300 67.5 66 56.8 NNE | 27 6.0 12.4 937 1,016.0 37 Good 0.00 0.00 48.2 68.6
5/9/26 - 1200 67.3 63 55.4 NNE | 16 5.0 12.7 876 1,016.5 33 Good 0.00 0.00 48.2 68.4
5/9/26 - 1100 64.5 64 53.0 SW | 235 2.1 7.3 762 1,017.1 35 Good 0.00 0.00 48.2 67.5
5/9/26 - 1000 59.7 74 52.5 N | 353 1.6 6.0 594 1,017.7 35 Good 0.00 0.00 48.2 62.7
5/9/26 - 0900 55.3 88 52.6 WSW | 244 2.4 5.7 423 1,018.4 32 Good 0.00 0.00 48.2 57.2
5/9/26 - 0800 52.8 93 51.7 SSW | 210 3.4 6.9 125 1,018.7 28 Good 0.00 0.00 48.2 53.8
5/9/26 - 0700 51.8 93 51.0 SSW | 209 3.0 5.9 21 1,018.7 24 Good 0.00 0.00 48.2 52.6
5/9/26 - 0600 51.9 92 50.7 SSW | 203 3.2 6.0 0 1,018.4 20 Good 0.00 0.00 48.2 52.6
5/9/26 - 0500 50.6 92 49.5 SSW | 199 3.3 5.6 0 1,018.6 19 Good 0.00 0.00 48.2 51.7
5/9/26 - 0400 49.2 94 48.4 SSW | 209 3.4 7.1 0 1,018.6 20 Good 0.00 0.00 48.2 50.7
5/9/26 - 0300 49.0 93 48.0 SSW | 198 4.3 6.7 0 1,019.0 20 Good 0.00 0.00 48.2 50.7
5/9/26 - 0200 49.9 91 48.3 SSW | 198 4.9 7.9 0 1,019.1 20 Good 0.00 0.00 49.0 50.7
5/9/26 - 0100 50.3 91 48.8 SSW | 199 4.4 7.4 0 1,019.4 21 Good 0.00 0.00 50.0 70.1
5/9/26 - 0000 51.0 90 49.3 SSW | 200 4.5 7.5 0 1,019.5 22 Good 0.00 0.00 50.3 70.1
5/8/26 - 2300 52.7 87 50.1 S | 191 3.8 6.4 0 1,019.6 22 Good 0.00 0.00 50.3 70.1
5/8/26 - 2200 53.4 87 50.6 SSE | 158 2.6 5.5 0 1,019.7 25 Good 0.00 0.00 50.3 70.1
5/8/26 - 2100 57.3 74 50.0 E | 92 1.7 4.5 1 1,019.0 25 Good 0.00 0.00 50.3 70.1
5/8/26 - 2000 61.5 64 50.1 NE | 37 3.8 8.2 71 1,018.5 25 Good 0.00 0.00 50.3 70.1
5/8/26 - 1900 64.3 61 51.3 NNE | 14 6.0 13.6 260 1,018.0 23 Good 0.00 0.00 50.3 70.1
5/8/26 - 1800 66.8 58 52.6 N | 6 5.9 12.3 464 1,017.7 24 Good 0.00 0.00 50.3 70.1
5/8/26 - 1700 66.8 59 53.1 N | 3 6.8 12.2 650 1,017.9 25 Good 0.00 0.00 50.3 70.1
5/8/26 - 1600 67.8 59 53.9 N | 6 6.1 12.1 811 1,017.8 24 Good 0.00 0.00 50.3 70.1
5/8/26 - 1500 68.0 60 54.5 NNE | 21 5.5 12.7 915 1,018.2 22 Good 0.00 0.00 50.3 70.1
5/8/26 - 1400 65.9 64 54.4 NNE | 12 5.2 15.2 956 1,019.0 21 Good 0.00 0.00 50.3 67.5
5/8/26 - 1300 63.3 69 53.9 N | 354 5.8 13.0 955 1,019.6 21 Good 0.00 0.00 50.3 65.8
5/8/26 - 1200 62.2 70 53.2 N | 359 5.7 10.9 892 1,020.2 18 Good 0.00 0.00 50.3 64.2
5/8/26 - 1100 61.4 67 51.1 NE | 45 4.4 12.1 777 1,020.9 13 Good 0.00 0.00 50.3 63.6
5/8/26 - 1000 58.8 69 49.5 E | 79 2.6 9.2 603 1,021.3 12 Good 0.00 0.00 50.3 61.0
5/8/26 - 0900 55.1 76 48.6 N | 8 2.3 6.6 453 1,021.8 9 Good 0.00 0.00 50.3 57.8
5/8/26 - 0800 52.4 83 48.3 SW | 218 2.0 4.7 171 1,022.0 8 Good 0.00 0.00 50.3 54.5
Max 71.9 96 56.8 - 7.8 15.2 956 1,022.0 39 - 0.00 0.00 50.3 74.4
Avg 58.5 76 51.4 - 4.0 8.2 326 1,018.1 21 - 0.00 - - -
Min 47.8 52 47.7 - 1.6 3.4 0 1,014.6 8 - 0.00 0.00 47.4 50.7
Total - - - - - - - - - - 0.00 - - -